Accueil
METAR-TAF:

METAR-TAF

Aéroports :

Abidjan, Côte d'Ivoire

Aéroport international Félix-Houphouët-Boigny

latitude: 05-15N, longitude: 003-56W, altitude: 7 m

Observation

Le bulletin a été fait il y a 25 minutes, à 03:30 UTC
Vent 5 kt de sud-ouest
Température 28°C
Humidité 84%
Pression 1010 hPa
Visibilité 10 km ou plus
Nuages épars à une hauteur de 1200 ft

METAR: DIAP 230330Z 23005KT 9999 SCT012 28/25 Q1010 NOSIG

Heure: 03:55 (03:55 UTC)

Prévision

Le bulletin a été fait il y a 4 heures et 55 minutes, à 23:00 UTC
Prévision valable du 23 à 00 UTC au 24 à 06 UTC
Vent 6 kt de sud-ouest
Visibilité: 8000 m
Quelques nuages à une hauteur de 1200 ft
Temporairement
du 23 à 02 UTC au 23 à 06 UTC
Visibilité: 4000 m
Nuages fragmentés à une hauteur de 1000 ft
pluie
Evoluant progressivement
du 23 à 10 UTC au 23 à 11 UTC
Vent 10 kt de sud/sud-ouest

TAF: DIAP 222300Z 2300/2406 23006KT 8000 FEW012 TEMPO 2302/2306 4000 RA BKN010 BECMG 2310/2311 20010KT

Observations et prévisions météorologiques de plus de 4000 aéroports (messages METAR et TAF).

Les stations disponibles sont représentées par des disques jaunes et rouges sur la carte.

Passer la souris dessus pour voir le nom de la station.

Cliquer dessus pour voir les observations et prévisions météorologiques.

Pour changer de carte: cliquez sur les boutons verts avec une croix noire pour zoomer, sur le bouton vert avec un tiret pour effectuer un zoom arrière, ou sur les flèches vertes pour les cartes adjacentes.


METAR-TAF: